(°C)
21°
24°
26°
27°
29°
30°
31°
(°C)
21°
23°
24°
26°
28°
30°
31°
NO
NNO
NNO
NNO
NNO
NO
O
(km/h)
10-14
11-14
12-14
12-16
8-16
5-19
4-20
(mm)
0
0
0
0
0
0
0
(%)
0
0
0
0
0
0
0

Elevação do sol

/ 11.8°
sun-icon
UV 5
07:54
19:58
Minguante gibosa (242°)
22:59
13:06

METAR para Alcantarilla (LERI)

Hora Condições Temperatura/
Ponto de condensação
Vento Visibilidade Tempo Nuvens Pressão Mudança Bruto
VFR 20°C / 13°C 250º 4kt >10km - Clouds and Visibility OK 1020 No Significant change LERI 260630Z 25004KT CAVOK 20/13 Q1020 NOSIG
VFR 19°C / 13°C 240º variable 220º to 290º 4kt >10km - Clouds and Visibility OK 1020 No Significant change LERI 260600Z 24004KT 220V290 CAVOK 19/13 Q1020 NOSIG
VFR 26°C / 20°C 170º variable 140º to 200º 8kt >10km - Few Clouds 4500ft 1016 No Significant change LERI 251800Z 17008KT 140V200 9999 FEW045 26/20 Q1016 NOSIG
VFR 26°C / 20°C 170º variable 140º to 200º 8kt >10km - Few Clouds 3700ft 1015 No Significant change LERI 251730Z 17008KT 140V200 9999 FEW037 26/20 Q1015 NOSIG
VFR 27°C / 20°C 170º variable 120º to 200º 12kt >10km - Few Clouds 3700ft 1015 No Significant change LERI 251700Z 17012KT 120V200 9999 FEW037 27/20 Q1015 NOSIG
VFR 28°C / 20°C 160º variable 120º to 200º 11kt >10km - Few Clouds 4700ft 1015 No Significant change LERI 251630Z 16011KT 120V200 9999 FEW047 28/20 Q1015 NOSIG
VFR 29°C / 20°C 120º variable 080º to 170º 9kt >10km - Few Clouds 4700ft 1015 No Significant change LERI 251600Z 12009KT 080V170 9999 FEW047 29/20 Q1015 NOSIG
VFR 29°C / 20°C 140º variable 110º to 170º 13kt >10km - Few Clouds 4700ft 1015 No Significant change LERI 251530Z 14013KT 110V170 9999 FEW047 29/20 Q1015 NOSIG
VFR 30°C / 21°C 140º variable 100º to 180º 15kt >10km - Few Clouds 4700ft 1015 No Significant change LERI 251500Z 14015KT 100V180 9999 FEW047 SCT054 30/21 Q1015 NOSIG
VFR 30°C / 18°C 140º variable 110º to 190º 10kt >10km - Few Clouds 5000ft 1015 No Significant change LERI 251430Z 14010KT 110V190 9999 FEW050 30/18 Q1015 NOSIG
VFR 32°C / 19°C variable 2kt >10km - Clouds and Visibility OK 1015 No Significant change LERI 251400Z VRB02KT CAVOK 32/19 Q1015 NOSIG
VFR 31°C / 19°C 140º 3kt >10km - Clouds and Visibility OK 1015 No Significant change LERI 251330Z 14003KT CAVOK 31/19 Q1015 NOSIG
VFR 31°C / 19°C variable 6kt >10km - Few Clouds 4100ft 1016 No Significant change LERI 251300Z VRB06KT 9999 FEW041 31/19 Q1016 NOSIG
VFR 30°C / 19°C variable 2kt >10km - Few Clouds 4200ft 1016 No Significant change LERI 251230Z VRB02KT 9999 FEW042 30/19 Q1016 NOSIG
VFR 30°C / 19°C variable 3kt >10km - Few Clouds 5000ft 1017 No Significant change LERI 251200Z VRB03KT 9999 FEW050 30/19 Q1017 NOSIG
VFR 30°C / 20°C 90º variable 030º to 160º 4kt >10km - Few Clouds 4500ft 1017 No Significant change LERI 251130Z 09004KT 030V160 9999 FEW045 30/20 Q1017 NOSIG
VFR 29°C / 20°C 90º variable 030º to 190º 5kt >10km - Few Clouds 4500ft 1017 No Significant change LERI 251100Z 09005KT 030V190 9999 FEW045 29/20 Q1017 NOSIG
VFR 28°C / 19°C variable 2kt >10km - Few Clouds 5000ft 1017 No Significant change LERI 251030Z VRB02KT 9999 FEW050 28/19 Q1017 NOSIG
VFR 28°C / 20°C 150º variable 070º to 210º 3kt >10km - Few Clouds 2500ft 1017 No Significant change LERI 251000Z 15003KT 070V210 9999 FEW025 28/20 Q1017 NOSIG
VFR 27°C / 19°C 60º variable 020º to 130º 3kt >10km - Few Clouds 2500ft 1017 No Significant change LERI 250930Z 06003KT 020V130 9999 FEW025 27/19 Q1017 NOSIG
VFR 26°C / 20°C variable 2kt >10km - Few Clouds 2000ft 1017 No Significant change LERI 250900Z VRB02KT 9999 FEW020 BKN050 26/20 Q1017 NOSIG
VFR 26°C / 20°C variable 1kt >10km - Few Clouds 2000ft 1017 No Significant change LERI 250830Z VRB01KT 9999 FEW020 SCT050 26/20 Q1017 NOSIG
VFR 25°C / 20°C variable 0kt >10km - Few Clouds 2000ft 1017 No Significant change LERI 250800Z 00000KT 9999 FEW020 25/20 Q1017 NOSIG
VFR 24°C / 21°C 70º variable 030º to 100º 3kt >10km - Few Clouds 5500ft 1017 No Significant change LERI 250730Z 07003KT 030V100 9999 FEW055 24/21 Q1017 NOSIG

VFR

20°C / 13°C

[Mais]
Vento 250º 4kt
Visibilidade >10km
Tempo -
Nuvens Clouds and Visibility OK
Pressão 1020
Mudança No Significant change
Bruto LERI 260630Z 25004KT CAVOK 20/13 Q1020 NOSIG

VFR

19°C / 13°C

[Mais]
Vento 240º variable 220º to 290º 4kt
Visibilidade >10km
Tempo -
Nuvens Clouds and Visibility OK
Pressão 1020
Mudança No Significant change
Bruto LERI 260600Z 24004KT 220V290 CAVOK 19/13 Q1020 NOSIG

VFR

26°C / 20°C

[Mais]
Vento 170º variable 140º to 200º 8kt
Visibilidade >10km
Tempo -
Nuvens Few Clouds 4500ft
Pressão 1016
Mudança No Significant change
Bruto LERI 251800Z 17008KT 140V200 9999 FEW045 26/20 Q1016 NOSIG

VFR

26°C / 20°C

[Mais]
Vento 170º variable 140º to 200º 8kt
Visibilidade >10km
Tempo -
Nuvens Few Clouds 3700ft
Pressão 1015
Mudança No Significant change
Bruto LERI 251730Z 17008KT 140V200 9999 FEW037 26/20 Q1015 NOSIG

VFR

27°C / 20°C

[Mais]
Vento 170º variable 120º to 200º 12kt
Visibilidade >10km
Tempo -
Nuvens Few Clouds 3700ft
Pressão 1015
Mudança No Significant change
Bruto LERI 251700Z 17012KT 120V200 9999 FEW037 27/20 Q1015 NOSIG

VFR

28°C / 20°C

[Mais]
Vento 160º variable 120º to 200º 11kt
Visibilidade >10km
Tempo -
Nuvens Few Clouds 4700ft
Pressão 1015
Mudança No Significant change
Bruto LERI 251630Z 16011KT 120V200 9999 FEW047 28/20 Q1015 NOSIG

VFR

29°C / 20°C

[Mais]
Vento 120º variable 080º to 170º 9kt
Visibilidade >10km
Tempo -
Nuvens Few Clouds 4700ft
Pressão 1015
Mudança No Significant change
Bruto LERI 251600Z 12009KT 080V170 9999 FEW047 29/20 Q1015 NOSIG

VFR

29°C / 20°C

[Mais]
Vento 140º variable 110º to 170º 13kt
Visibilidade >10km
Tempo -
Nuvens Few Clouds 4700ft
Pressão 1015
Mudança No Significant change
Bruto LERI 251530Z 14013KT 110V170 9999 FEW047 29/20 Q1015 NOSIG

VFR

30°C / 21°C

[Mais]
Vento 140º variable 100º to 180º 15kt
Visibilidade >10km
Tempo -
Nuvens Few Clouds 4700ft
Pressão 1015
Mudança No Significant change
Bruto LERI 251500Z 14015KT 100V180 9999 FEW047 SCT054 30/21 Q1015 NOSIG

VFR

30°C / 18°C

[Mais]
Vento 140º variable 110º to 190º 10kt
Visibilidade >10km
Tempo -
Nuvens Few Clouds 5000ft
Pressão 1015
Mudança No Significant change
Bruto LERI 251430Z 14010KT 110V190 9999 FEW050 30/18 Q1015 NOSIG

VFR

32°C / 19°C

[Mais]
Vento variable 2kt
Visibilidade >10km
Tempo -
Nuvens Clouds and Visibility OK
Pressão 1015
Mudança No Significant change
Bruto LERI 251400Z VRB02KT CAVOK 32/19 Q1015 NOSIG

VFR

31°C / 19°C

[Mais]
Vento 140º 3kt
Visibilidade >10km
Tempo -
Nuvens Clouds and Visibility OK
Pressão 1015
Mudança No Significant change
Bruto LERI 251330Z 14003KT CAVOK 31/19 Q1015 NOSIG

VFR

31°C / 19°C

[Mais]
Vento variable 6kt
Visibilidade >10km
Tempo -
Nuvens Few Clouds 4100ft
Pressão 1016
Mudança No Significant change
Bruto LERI 251300Z VRB06KT 9999 FEW041 31/19 Q1016 NOSIG

VFR

30°C / 19°C

[Mais]
Vento variable 2kt
Visibilidade >10km
Tempo -
Nuvens Few Clouds 4200ft
Pressão 1016
Mudança No Significant change
Bruto LERI 251230Z VRB02KT 9999 FEW042 30/19 Q1016 NOSIG

VFR

30°C / 19°C

[Mais]
Vento variable 3kt
Visibilidade >10km
Tempo -
Nuvens Few Clouds 5000ft
Pressão 1017
Mudança No Significant change
Bruto LERI 251200Z VRB03KT 9999 FEW050 30/19 Q1017 NOSIG

VFR

30°C / 20°C

[Mais]
Vento 90º variable 030º to 160º 4kt
Visibilidade >10km
Tempo -
Nuvens Few Clouds 4500ft
Pressão 1017
Mudança No Significant change
Bruto LERI 251130Z 09004KT 030V160 9999 FEW045 30/20 Q1017 NOSIG

VFR

29°C / 20°C

[Mais]
Vento 90º variable 030º to 190º 5kt
Visibilidade >10km
Tempo -
Nuvens Few Clouds 4500ft
Pressão 1017
Mudança No Significant change
Bruto LERI 251100Z 09005KT 030V190 9999 FEW045 29/20 Q1017 NOSIG

VFR

28°C / 19°C

[Mais]
Vento variable 2kt
Visibilidade >10km
Tempo -
Nuvens Few Clouds 5000ft
Pressão 1017
Mudança No Significant change
Bruto LERI 251030Z VRB02KT 9999 FEW050 28/19 Q1017 NOSIG

VFR

28°C / 20°C

[Mais]
Vento 150º variable 070º to 210º 3kt
Visibilidade >10km
Tempo -
Nuvens Few Clouds 2500ft
Pressão 1017
Mudança No Significant change
Bruto LERI 251000Z 15003KT 070V210 9999 FEW025 28/20 Q1017 NOSIG

VFR

27°C / 19°C

[Mais]
Vento 60º variable 020º to 130º 3kt
Visibilidade >10km
Tempo -
Nuvens Few Clouds 2500ft
Pressão 1017
Mudança No Significant change
Bruto LERI 250930Z 06003KT 020V130 9999 FEW025 27/19 Q1017 NOSIG

VFR

26°C / 20°C

[Mais]
Vento variable 2kt
Visibilidade >10km
Tempo -
Nuvens Few Clouds 2000ft
Pressão 1017
Mudança No Significant change
Bruto LERI 250900Z VRB02KT 9999 FEW020 BKN050 26/20 Q1017 NOSIG

VFR

26°C / 20°C

[Mais]
Vento variable 1kt
Visibilidade >10km
Tempo -
Nuvens Few Clouds 2000ft
Pressão 1017
Mudança No Significant change
Bruto LERI 250830Z VRB01KT 9999 FEW020 SCT050 26/20 Q1017 NOSIG

VFR

25°C / 20°C

[Mais]
Vento variable 0kt
Visibilidade >10km
Tempo -
Nuvens Few Clouds 2000ft
Pressão 1017
Mudança No Significant change
Bruto LERI 250800Z 00000KT 9999 FEW020 25/20 Q1017 NOSIG

VFR

24°C / 21°C

[Mais]
Vento 70º variable 030º to 100º 3kt
Visibilidade >10km
Tempo -
Nuvens Few Clouds 5500ft
Pressão 1017
Mudança No Significant change
Bruto LERI 250730Z 07003KT 030V100 9999 FEW055 24/21 Q1017 NOSIG

TAF para Alcantarilla (LERI)

From till


Maximum Temperature 31ºC on . Minimum Temperature 19ºC on .
From till Wind 330º 10kt. Visibility 10km or more. Nil Significant Cloud.
Temporarly from till Wind variable 3kt.

Bruto: TAF LERI 260500Z 2606/2706 33010KT CAVOK TX31/2616Z TN19/2706Z TEMPO 2612/2622 VRB03KT

Imagens atuais de satélite e precipitação para Alcantarilla, Espanha

O marcador de lugar é colocado em Alcantarilla. [Mais]

A imagem de satélite em tempo real combina luz visível durante o dia com radiação infravermelha durante a noite. À noite, a imagem não é escura, pois a radiação infravermelha pode detectar diferenças de temperatura. Infelizmente, nuvens baixas e neblina são difíceis de distinguir das temperaturas do solo e, portanto, podem ser quase invisíveis durante a noite. As imagens de satélite Meteosat para a Europa são atualizadas em tempo real a cada 5 minutos. GOES-16/GOES-17 ( América do Norte e do Sul) e Himawari (Ásia) são atualizadas a cada 10 minutos.

A precipitação é estimada por radares e satélites. A estimativa da precipitação noturna por satélites é menos precisa do que durante o dia. Cruzes laranjas identificam lugares onde relâmpagos foram detetados (em Europa).

Copyright 2021 EUMETSAT / meteoblue. Dados de relâmpagos fornecidos por nowcast.

Radar para Alcantarilla

Chuvisco
Leve
Moderado
Forte
Muito forte
Granizo

O marcador do lugar é colocado em Alcantarilla. Esta animação mostra o radar de precipitação para a última 1 hora. A queda de neve pode ser invisível para o radar. A intensidade da precipitação é codificada por cores, variando do azul claro ao laranja.
Radar data source: AEMET.

Situação meteorológica atual e alertas

EUMETNET – MeteoAlarm

pictomap

Fonte: AEMET

Atrasos horários entre este site e www.meteoalarm.eu são possíveis. Para obter as informações mais atualizadas sobre os níveis de alerta, conforme publicado pelos Serviços Meteorológicos Nacionais participantes, visite o www.meteoalarm.eu.